RJTS(METAR)
10/20 06:00
METAR RJTS 192100Z 33001KT 9999 -RA FEW005 BKN020 BKN035 11/10 Q1017
RMK 1ST005 5SC020 6SC035 A3005=
戻る
トップページへ戻る
IMOC Co,.Ltd.